Puntilla Lake, Alaska
Current Conditions -  °F | °C
As of 7:36 AM on Friday 24 Oct 2014 (Local Time) from PAFS Reporting Station
Light Snow Light Snow  
Wind Chill: 23°   Ceiling: 1000
Heat Index: 23°   Visibility: 1.2mi
Dew Point: 21°   Wind: 0mph
Humidity: 93%   Direction: NA
Pressure: 29.8"   Gusts: NA
Location:  62.1°N, 152.75°W
Report Text: PAFS 241536Z AUTO 00000KT 1 1/4SM -SN BR SCT001 BKN010 OVC020 M05/M06 A2980 RMK AO2 TSNO P0000 $
Loading
Personal Weather Stations






























Interactive Weather Map
Tropical Storm Tracking
New forecast layout! Learn more

10-Day Weather Forecast

Advertisements
Track Severe Weather on mobile